Time;durP1;ratioP1;P1;durP2;ratioP2;P2;SDS_P1;SDS_P2;PMS_P1;PMS_P2;Temp;Humidity;BMP_temperature;BMP_pressure;BME280_temperature;BME280_humidity;BME280_pressure;Samples;Min_cycle;Max_cycle;Signal;HPM_P1;HPM_P2
2022/08/02 00:00:06;;;;;;;5.43;4.80;;;18.70;99.90;;;;;;5058984;28;20457;-84
2022/08/02 00:02:34;;;;;;;6.90;5.37;;;18.60;99.90;;;;;;5058501;28;20460;-85
2022/08/02 00:05:02;;;;;;;5.30;4.80;;;18.60;99.90;;;;;;5058207;28;20476;-84
2022/08/02 00:07:29;;;;;;;6.60;6.10;;;18.50;99.90;;;;;;5059789;28;20804;-85
2022/08/02 00:09:55;;;;;;;6.50;6.00;;;18.40;99.90;;;;;;5057128;28;20456;-85
2022/08/02 00:12:22;;;;;;;7.17;6.47;;;18.40;99.90;;;;;;5058764;28;20476;-85
2022/08/02 00:14:49;;;;;;;6.20;5.60;;;18.30;99.90;;;;;;5058602;28;20467;-85
2022/08/02 00:17:16;;;;;;;7.70;7.00;;;18.30;99.90;;;;;;5057001;28;20801;-85
2022/08/02 00:19:43;;;;;;;5.53;4.97;;;18.30;99.90;;;;;;5057479;28;20451;-84
2022/08/02 00:22:11;;;;;;;6.63;5.73;;;18.10;99.90;;;;;;5056136;28;20819;-84
2022/08/02 00:24:38;;;;;;;8.70;7.00;;;18.00;99.90;;;;;;5055877;28;20462;-84
2022/08/02 00:27:07;;;;;;;6.80;6.10;;;18.00;99.90;;;;;;5056788;28;20974;-84
2022/08/02 00:29:33;;;;;;;7.40;6.80;;;17.90;99.90;;;;;;5056441;28;20471;-85
2022/08/02 00:32:00;;;;;;;7.23;6.63;;;18.00;99.90;;;;;;5056468;28;20497;-85
2022/08/02 00:34:27;;;;;;;7.20;6.60;;;17.90;99.90;;;;;;5056329;28;20945;-84
2022/08/02 00:36:53;;;;;;;6.83;6.27;;;18.00;99.90;;;;;;5056853;28;20470;-85
2022/08/02 00:39:21;;;;;;;7.70;7.10;;;18.00;99.90;;;;;;5056618;28;20452;-84
2022/08/02 00:41:50;;;;;;;7.13;6.33;;;18.00;99.90;;;;;;5056744;28;20451;-84
2022/08/02 00:44:18;;;;;;;6.93;6.40;;;18.10;99.90;;;;;;5056435;28;20461;-84
2022/08/02 00:46:45;;;;;;;6.37;5.87;;;17.90;99.90;;;;;;5056722;28;20842;-84
2022/08/02 00:49:12;;;;;;;6.80;6.30;;;17.90;99.90;;;;;;5056459;28;20455;-84
2022/08/02 00:51:40;;;;;;;7.73;7.03;;;17.90;99.90;;;;;;5056146;28;20488;-84
2022/08/02 00:54:07;;;;;;;7.73;7.10;;;17.80;99.90;;;;;;5056055;28;20817;-84
2022/08/02 00:56:36;;;;;;;6.97;6.37;;;17.80;99.90;;;;;;5057453;28;20478;-84
2022/08/02 00:59:04;;;;;;;6.27;5.77;;;17.70;99.90;;;;;;5057445;28;20459;-85
2022/08/02 01:01:40;;;;;;;7.20;5.40;;;17.80;99.90;;;;;;5056578;28;20456;-85
2022/08/02 01:04:09;;;;;;;5.80;5.30;;;17.80;99.90;;;;;;5056381;28;20549;-84
2022/08/02 01:06:36;;;;;;;5.17;4.70;;;17.70;99.90;;;;;;5056449;28;20473;-85
2022/08/02 01:09:05;;;;;;;5.93;5.43;;;17.60;99.90;;;;;;5055816;28;20538;-85
2022/08/02 01:11:32;;;;;;;5.87;5.37;;;17.70;99.90;;;;;;5056357;28;20509;-85
2022/08/02 01:14:04;;;;;;;5.37;4.77;;;17.60;99.90;;;;;;5054647;28;20456;-85
2022/08/02 01:16:33;;;;;;;6.43;4.60;;;17.70;99.90;;;;;;5055754;28;20482;-85
2022/08/02 01:19:10;;;;;;;4.87;4.43;;;17.60;99.90;;;;;;5059869;28;20477;-85
2022/08/02 01:21:49;;;;;;;4.93;4.53;;;17.60;99.90;;;;;;5059670;28;20451;-85
2022/08/02 01:24:27;;;;;;;5.07;4.67;;;17.60;99.90;;;;;;5059745;28;20451;-85
2022/08/02 01:27:05;;;;;;;4.90;4.50;;;17.50;99.90;;;;;;5059886;28;20462;-85
2022/08/02 01:29:37;;;;;;;4.53;4.23;;;17.40;99.90;;;;;;5059840;28;20442;-85
2022/08/02 01:32:09;;;;;;;5.90;5.40;;;17.40;99.90;;;;;;5059043;28;20498;-85
2022/08/02 01:34:39;;;;;;;4.63;4.23;;;17.50;99.90;;;;;;5059033;28;20454;-85
2022/08/02 01:37:12;;;;;;;5.23;4.83;;;17.40;99.90;;;;;;5059475;28;20473;-85
2022/08/02 01:39:42;;;;;;;4.80;4.40;;;17.40;99.90;;;;;;5059273;28;20451;-85
2022/08/02 01:42:10;;;;;;;5.37;4.97;;;17.40;99.90;;;;;;5060195;28;20451;-85
2022/08/02 01:44:42;;;;;;;3.90;3.60;;;17.30;99.90;;;;;;5058733;28;20447;-84
2022/08/02 01:47:22;;;;;;;4.73;4.33;;;17.40;99.90;;;;;;5055388;28;20454;-84
2022/08/02 01:49:52;;;;;;;4.67;4.20;;;17.40;99.90;;;;;;5055094;28;20822;-84
2022/08/02 01:52:20;;;;;;;5.53;4.20;;;17.40;99.90;;;;;;5055207;28;20498;-84
2022/08/02 01:54:51;;;;;;;4.83;4.30;;;17.40;99.90;;;;;;5054665;28;20522;-84
2022/08/02 01:57:21;;;;;;;4.27;3.97;;;17.30;99.90;;;;;;5055359;28;20455;-84
2022/08/02 01:59:50;;;;;;;4.93;4.53;;;17.20;99.90;;;;;;5055004;28;20451;-84
2022/08/02 02:02:18;;;;;;;4.50;4.10;;;17.20;99.90;;;;;;5054796;28;20462;-84
2022/08/02 02:04:46;;;;;;;4.53;4.23;;;17.30;99.90;;;;;;5054842;28;20471;-84
2022/08/02 02:07:15;;;;;;;4.67;4.00;;;17.30;99.90;;;;;;5055572;28;20466;-84
2022/08/02 02:09:44;;;;;;;4.87;4.47;;;17.40;99.90;;;;;;5055754;28;20459;-84
2022/08/02 02:12:14;;;;;;;4.23;3.93;;;17.40;99.90;;;;;;5055059;28;20582;-84
2022/08/02 02:14:42;;;;;;;4.20;3.87;;;17.50;99.90;;;;;;5054800;28;20471;-84
2022/08/02 02:17:12;;;;;;;4.37;3.97;;;17.50;99.90;;;;;;5054897;28;20451;-84
2022/08/02 02:19:40;;;;;;;5.00;4.50;;;17.50;99.90;;;;;;5055482;28;20459;-84
2022/08/02 02:22:07;;;;;;;4.70;4.30;;;17.50;99.90;;;;;;5055324;28;20451;-84
2022/08/02 02:24:35;;;;;;;5.53;4.43;;;17.40;99.90;;;;;;5055191;28;20806;-85
2022/08/02 02:27:03;;;;;;;4.80;4.40;;;17.50;99.90;;;;;;5054027;28;20455;-84
2022/08/02 02:29:32;;;;;;;4.30;4.00;;;17.50;99.90;;;;;;5054890;28;20464;-84
2022/08/02 02:32:01;;;;;;;5.43;4.37;;;17.60;99.90;;;;;;5034930;28;21036;-84
2022/08/02 02:34:36;;;;;;;4.93;4.53;;;17.50;99.90;;;;;;5049734;28;20459;-84
2022/08/02 02:37:08;;;;;;;4.37;4.07;;;17.60;99.90;;;;;;5055170;28;20543;-85
2022/08/02 02:39:37;;;;;;;4.17;3.87;;;17.60;99.90;;;;;;5054310;28;20477;-84
2022/08/02 02:42:10;;;;;;;7.10;4.43;;;17.60;99.90;;;;;;5055393;28;20455;-84
2022/08/02 02:47:11;;;;;;;4.23;3.93;;;17.70;99.90;;;;;;5043843;28;20537;-86
2022/08/02 02:49:40;;;;;;;4.57;4.20;;;17.70;99.90;;;;;;5056192;28;20538;-88
2022/08/02 02:52:08;;;;;;;3.70;3.40;;;17.60;99.90;;;;;;5058151;28;20486;-86
2022/08/02 02:54:37;;;;;;;4.07;3.70;;;17.70;99.90;;;;;;5060027;28;20466;-86
2022/08/02 02:57:06;;;;;;;4.23;3.73;;;17.70;99.90;;;;;;5030019;28;20457;-85
2022/08/02 02:59:35;;;;;;;3.63;3.43;;;17.70;99.90;;;;;;5026781;28;20449;-86
2022/08/02 03:02:04;;;;;;;4.10;3.80;;;17.70;99.90;;;;;;5040148;28;20452;-88
2022/08/02 03:04:31;;;;;;;3.80;3.50;;;17.70;99.90;;;;;;5034532;28;20452;-85
2022/08/02 03:07:00;;;;;;;4.87;4.40;;;17.70;99.90;;;;;;5032656;28;20763;-84
2022/08/02 03:09:27;;;;;;;3.63;3.30;;;17.70;99.90;;;;;;5038187;28;20456;-84
2022/08/02 03:11:54;;;;;;;5.07;3.73;;;17.70;99.90;;;;;;5047537;28;20448;-87
2022/08/02 03:14:21;;;;;;;4.77;4.30;;;17.70;99.90;;;;;;5037385;28;20454;-86
2022/08/02 03:16:50;;;;;;;3.43;3.13;;;17.70;99.90;;;;;;5021347;28;20473;-86
2022/08/02 03:19:18;;;;;;;3.97;3.40;;;17.70;99.90;;;;;;5023494;28;20992;-85
2022/08/02 03:21:47;;;;;;;4.70;4.30;;;17.70;99.90;;;;;;5019042;28;20477;-84
2022/08/02 03:24:16;;;;;;;4.47;4.07;;;17.70;99.90;;;;;;5039600;28;20492;-87
2022/08/02 03:26:42;;;;;;;5.63;4.17;;;17.60;99.90;;;;;;5039279;28;21015;-87
2022/08/02 03:29:09;;;;;;;4.80;4.20;;;17.60;99.90;;;;;;5021317;28;20833;-85
2022/08/02 03:31:39;;;;;;;4.83;4.53;;;17.50;99.90;;;;;;5019684;28;20461;-86
2022/08/02 03:34:06;;;;;;;4.80;4.40;;;17.50;99.90;;;;;;5036897;28;20832;-86
2022/08/02 03:36:35;;;;;;;4.60;4.30;;;17.50;99.90;;;;;;5039635;28;20457;-87
2022/08/02 03:39:03;;;;;;;4.40;4.10;;;17.50;99.90;;;;;;5022161;28;20446;-85
2022/08/02 03:41:33;;;;;;;4.23;3.80;;;17.50;99.90;;;;;;5019356;28;20448;-86
2022/08/02 03:44:00;;;;;;;5.97;4.40;;;17.50;99.90;;;;;;5036018;28;20456;-84
2022/08/02 03:46:27;;;;;;;4.47;4.10;;;17.40;99.90;;;;;;5026749;28;20485;-87
2022/08/02 03:48:55;;;;;;;4.50;4.13;;;17.40;99.90;;;;;;5019034;28;20461;-85
2022/08/02 03:51:22;;;;;;;4.17;3.87;;;17.40;99.90;;;;;;5021217;28;20484;-85
2022/08/02 03:53:49;;;;;;;4.53;3.77;;;17.40;99.90;;;;;;5018820;28;20500;-86
2022/08/02 03:56:16;;;;;;;4.10;3.43;;;17.40;99.90;;;;;;5020438;28;20470;-86
2022/08/02 03:58:45;;;;;;;6.50;4.60;;;17.40;99.90;;;;;;5018937;28;20548;-88
2022/08/02 04:01:11;;;;;;;6.47;5.70;;;17.40;99.90;;;;;;5027045;28;20456;-85
2022/08/02 04:03:38;;;;;;;4.23;3.70;;;17.40;99.90;;;;;;5038303;28;20475;-88
2022/08/02 04:06:05;;;;;;;4.07;3.87;;;17.40;99.90;;;;;;5031254;28;20476;-86
2022/08/02 04:08:32;;;;;;;5.10;4.70;;;17.40;99.90;;;;;;5017842;28;20449;-85
2022/08/02 04:13:44;;;;;;;5.13;4.63;;;17.40;99.90;;;;;;5034800;28;20483;-82
2022/08/02 04:16:15;;;;;;;4.23;3.83;;;17.40;99.90;;;;;;5037224;28;20545;-85
2022/08/02 04:18:48;;;;;;;4.10;3.80;;;17.40;99.90;;;;;;5034914;28;20455;-85
2022/08/02 04:21:18;;;;;;;6.00;5.57;;;17.40;99.90;;;;;;5017816;28;20461;-86
2022/08/02 04:23:47;;;;;;;5.60;5.13;;;17.40;99.90;;;;;;5020775;28;20452;-83
2022/08/02 04:26:14;;;;;;;5.07;4.60;;;17.40;99.90;;;;;;5037065;28;20467;-86
2022/08/02 04:28:42;;;;;;;5.37;4.70;;;17.40;99.90;;;;;;5035323;28;20449;-85
2022/08/02 04:31:10;;;;;;;4.30;3.93;;;17.50;99.90;;;;;;5017559;28;20452;-85
2022/08/02 04:33:38;;;;;;;6.30;3.90;;;17.50;99.90;;;;;;5019514;28;20497;-85
2022/08/02 04:36:06;;;;;;;5.43;4.83;;;17.50;99.90;;;;;;5037288;28;20481;-84
2022/08/02 04:38:33;;;;;;;5.60;5.10;;;17.50;99.90;;;;;;5018799;28;20453;-84
2022/08/02 04:41:00;;;;;;;4.03;3.73;;;17.60;99.90;;;;;;5030939;28;20484;-85
2022/08/02 04:43:27;;;;;;;5.33;4.90;;;17.60;99.90;;;;;;5037488;28;20459;-84
2022/08/02 04:45:55;;;;;;;6.93;5.37;;;17.60;99.90;;;;;;5024534;28;20484;-84
2022/08/02 04:48:23;;;;;;;10.43;4.70;;;17.50;99.90;;;;;;5017975;28;20450;-84
2022/08/02 04:50:50;;;;;;;5.40;5.00;;;17.60;99.90;;;;;;5029564;28;20452;-85
2022/08/02 04:53:17;;;;;;;4.73;4.30;;;17.60;99.90;;;;;;5039921;28;20491;-84
2022/08/02 04:55:44;;;;;;;4.80;4.30;;;17.70;99.90;;;;;;5029813;28;20477;-85
2022/08/02 04:58:11;;;;;;;4.70;4.30;;;17.70;99.90;;;;;;5021588;28;20453;-84
2022/08/02 05:00:37;;;;;;;4.40;4.10;;;17.70;99.90;;;;;;5031050;28;20463;-84
2022/08/02 05:03:04;;;;;;;4.93;4.43;;;17.80;99.90;;;;;;5041354;28;20452;-84
2022/08/02 05:05:32;;;;;;;5.93;4.47;;;17.80;99.90;;;;;;5032078;28;20484;-85
2022/08/02 05:07:59;;;;;;;4.57;4.27;;;17.80;99.90;;;;;;5034229;28;20457;-85
2022/08/02 05:10:26;;;;;;;4.77;4.47;;;17.90;99.90;;;;;;5023505;28;20463;-85
2022/08/02 05:12:52;;;;;;;4.70;4.33;;;17.80;99.90;;;;;;5021126;28;20485;-84
2022/08/02 05:15:20;;;;;;;4.90;4.40;;;17.90;99.90;;;;;;5021191;28;20476;-84
2022/08/02 05:17:48;;;;;;;5.43;4.93;;;17.90;99.90;;;;;;5028354;28;20452;-84
2022/08/02 05:20:15;;;;;;;4.77;4.37;;;17.90;99.90;;;;;;5039290;28;20903;-84
2022/08/02 05:22:43;;;;;;;5.20;4.80;;;18.10;99.90;;;;;;5037688;28;20445;-84
2022/08/02 05:25:10;;;;;;;5.07;4.67;;;18.10;99.90;;;;;;5037521;28;20477;-84
2022/08/02 05:27:37;;;;;;;5.30;4.80;;;18.20;99.90;;;;;;5036809;28;20452;-85
2022/08/02 05:30:05;;;;;;;5.73;5.23;;;18.30;99.90;;;;;;5021012;28;20954;-85
2022/08/02 05:32:32;;;;;;;4.13;3.83;;;18.30;99.90;;;;;;5039743;28;20463;-83
2022/08/02 05:35:00;;;;;;;4.40;4.10;;;18.40;99.90;;;;;;5039997;28;20452;-84
2022/08/02 05:37:27;;;;;;;5.10;4.70;;;18.50;99.90;;;;;;5021801;28;20515;-85
2022/08/02 05:39:55;;;;;;;5.30;4.53;;;18.60;99.90;;;;;;5021360;28;20446;-85
2022/08/02 05:42:21;;;;;;;4.70;4.40;;;18.70;99.90;;;;;;5034360;28;20476;-82
2022/08/02 05:44:48;;;;;;;4.87;4.47;;;18.80;99.90;;;;;;5037684;28;20456;-81
2022/08/02 05:47:15;;;;;;;5.23;4.83;;;18.90;99.90;;;;;;5022284;28;20458;-81
2022/08/02 05:49:41;;;;;;;4.90;4.50;;;18.90;99.90;;;;;;5018649;28;20456;-81
2022/08/02 05:52:15;;;;;;;4.70;4.40;;;18.70;99.90;;;;;;5034745;28;20456;-81
2022/08/02 05:54:49;;;;;;;6.60;4.13;;;18.80;99.90;;;;;;5029993;28;20525;-82
2022/08/02 05:57:30;;;;;;;5.37;4.90;;;19.00;99.90;;;;;;5018615;28;20551;-81
2022/08/02 06:00:05;;;;;;;6.33;5.13;;;19.10;99.90;;;;;;5023105;28;20528;-82
2022/08/02 06:02:43;;;;;;;6.30;5.70;;;19.20;99.90;;;;;;5018561;28;20483;-82
2022/08/02 06:05:12;;;;;;;5.70;5.10;;;19.20;99.90;;;;;;5022672;28;20560;-81
2022/08/02 06:07:41;;;;;;;5.50;5.00;;;19.20;99.90;;;;;;5018968;28;20435;-81
2022/08/02 06:10:12;;;;;;;7.20;5.17;;;19.30;99.90;;;;;;5030441;28;20460;-82
2022/08/02 06:12:47;;;;;;;4.50;4.10;;;19.30;99.90;;;;;;5039198;28;20452;-82
2022/08/02 06:15:14;;;;;;;5.10;4.60;;;19.40;99.90;;;;;;5026009;28;20464;-81
2022/08/02 06:17:42;;;;;;;5.10;4.70;;;19.50;99.90;;;;;;5027909;28;20450;-82
2022/08/02 06:20:11;;;;;;;6.17;5.67;;;19.60;99.90;;;;;;5039594;28;20449;-81
2022/08/02 06:22:40;;;;;;;8.73;5.60;;;19.60;99.90;;;;;;5035100;28;20499;-82
2022/08/02 06:25:08;;;;;;;6.20;5.70;;;19.60;99.90;;;;;;5038762;28;20464;-82
2022/08/02 06:27:35;;;;;;;6.40;5.00;;;19.60;99.90;;;;;;5024233;28;20454;-82
2022/08/02 06:30:05;;;;;;;6.73;6.00;;;19.70;99.90;;;;;;5021692;28;20459;-83
2022/08/02 06:32:33;;;;;;;5.77;5.27;;;19.80;99.90;;;;;;5043012;28;20447;-83
2022/08/02 06:35:00;;;;;;;4.83;4.53;;;19.70;99.90;;;;;;5033116;28;20493;-83
2022/08/02 06:37:35;;;;;;;6.63;5.17;;;19.70;99.90;;;;;;5019764;28;20452;-82
2022/08/02 06:40:07;;;;;;;5.30;4.90;;;19.50;99.90;;;;;;5030010;28;20970;-83
2022/08/02 06:42:48;;;;;;;5.80;4.73;;;19.50;99.90;;;;;;5024362;28;20477;-84
2022/08/02 06:45:17;;;;;;;4.93;4.47;;;19.70;99.90;;;;;;5032282;28;20539;-84
2022/08/02 06:47:44;;;;;;;5.57;4.93;;;19.80;99.90;;;;;;5031803;28;20446;-85
2022/08/02 06:50:11;;;;;;;6.37;5.77;;;19.80;99.90;;;;;;5041927;28;20813;-84
2022/08/02 06:52:38;;;;;;;5.70;4.83;;;19.80;99.90;;;;;;5022562;28;20454;-84
2022/08/02 06:55:06;;;;;;;6.03;5.30;;;19.90;99.90;;;;;;5021400;28;20505;-84
2022/08/02 06:57:34;;;;;;;5.50;5.07;;;20.00;99.90;;;;;;5022447;28;20457;-84
2022/08/02 07:00:03;;;;;;;5.20;4.73;;;20.10;99.90;;;;;;5021863;28;20554;-84
2022/08/02 07:02:31;;;;;;;5.03;4.63;;;20.10;99.90;;;;;;5020960;28;20458;-84
2022/08/02 07:04:59;;;;;;;6.13;5.53;;;20.10;99.90;;;;;;5022105;28;20451;-84
2022/08/02 07:07:26;;;;;;;5.80;5.40;;;20.20;99.90;;;;;;5022302;28;20450;-84
2022/08/02 07:09:54;;;;;;;7.07;6.37;;;20.20;99.90;;;;;;5021553;28;20446;-85
2022/08/02 07:12:20;;;;;;;5.30;4.80;;;20.10;99.90;;;;;;5021771;28;20458;-84
2022/08/02 07:14:47;;;;;;;6.10;5.60;;;20.20;99.90;;;;;;5020143;28;20497;-84
2022/08/02 07:17:14;;;;;;;7.00;6.03;;;20.40;99.90;;;;;;5021973;28;20784;-84
2022/08/02 07:19:43;;;;;;;5.27;4.87;;;20.40;99.90;;;;;;5021828;28;20455;-85
2022/08/02 07:22:11;;;;;;;6.17;5.70;;;20.40;99.90;;;;;;5020600;28;20454;-85
2022/08/02 07:24:38;;;;;;;6.97;6.20;;;20.30;99.90;;;;;;5020581;28;20523;-85
2022/08/02 07:27:05;;;;;;;5.60;5.20;;;20.30;99.90;;;;;;5021139;28;20458;-85
2022/08/02 07:29:32;;;;;;;6.30;5.80;;;20.30;99.90;;;;;;5020591;28;20951;-84
2022/08/02 07:31:59;;;;;;;6.80;6.30;;;20.50;99.90;;;;;;5019892;28;20553;-85
2022/08/02 07:34:25;;;;;;;6.73;5.97;;;20.50;99.90;;;;;;5020040;28;20489;-85
2022/08/02 07:36:53;;;;;;;9.10;5.50;;;20.70;99.90;;;;;;5020550;28;20481;-85
2022/08/02 07:39:20;;;;;;;7.33;5.77;;;20.90;99.90;;;;;;5019910;28;20456;-85
2022/08/02 07:41:50;;;;;;;7.37;6.77;;;21.00;99.90;;;;;;5020081;28;20449;-85
2022/08/02 07:44:17;;;;;;;5.97;5.53;;;21.20;99.90;;;;;;5018705;28;20866;-85
2022/08/02 08:45:16;;;;;;;8.20;6.00;;;22.40;99.90;;;;;;4861050;22;20621;-85
2022/08/02 08:51:58;;;;;;;7.00;6.40;;;22.60;99.90;;;;;;4827139;29;20452;-85
2022/08/02 10:40:38;;;;;;;5.57;4.80;;;28.40;93.80;;;;;;4736380;30;20869;-85
2022/08/02 11:53:58;;;;;;;;;;;;;;;;;;;;;
2022/08/02 12:14:13;;;;;;;5.40;5.00;;;32.50;62.70;;;;;;4704711;30;20539;-85
2022/08/02 12:43:20;;;;;;;5.23;4.83;;;31.30;59.80;;;;;;2197949;26;20483;-84
2022/08/02 16:48:59;;;;;;;4.27;4.03;;;44.30;29.30;;;;;;3530184;23;20516;-84
2022/08/02 16:51:41;;;;;;;4.30;4.00;;;43.90;30.10;;;;;;5022497;28;20430;-87
2022/08/02 16:57:08;;;;;;;3.80;3.50;;;43.30;30.60;;;;;;4965020;28;20488;-83
2022/08/02 16:59:35;;;;;;;3.30;3.10;;;43.10;30.40;;;;;;4955742;29;20457;-84
2022/08/02 17:02:38;;;;;;;3.67;3.47;;;42.70;30.40;;;;;;5007770;28;20450;-86
2022/08/02 17:05:08;;;;;;;4.20;4.00;;;42.50;31.00;;;;;;5011827;28;20496;-84
2022/08/02 17:07:35;;;;;;;4.20;3.90;;;42.40;30.80;;;;;;5023223;28;20449;-85
2022/08/02 17:10:06;;;;;;;4.10;3.90;;;42.20;31.10;;;;;;5012983;28;20557;-87
2022/08/02 17:12:36;;;;;;;3.50;3.30;;;41.70;31.50;;;;;;4999118;28;20891;-86
2022/08/02 17:15:03;;;;;;;3.80;3.47;;;41.20;32.40;;;;;;4999321;28;20513;-84
2022/08/02 17:17:30;;;;;;;4.00;3.60;;;40.90;32.20;;;;;;5004604;28;20522;-85
2022/08/02 17:19:57;;;;;;;3.43;3.23;;;40.70;32.60;;;;;;5020296;28;20495;-83
2022/08/02 17:22:25;;;;;;;3.70;3.50;;;39.90;32.60;;;;;;5019243;28;20454;-83
2022/08/02 17:27:27;;;;;;;4.20;4.00;;;39.00;34.20;;;;;;1389736;26;20616;-83
2022/08/02 17:29:54;;;;;;;4.20;3.80;;;38.40;34.50;;;;;;5006753;28;22180;-81
2022/08/02 17:32:21;;;;;;;3.73;3.53;;;37.80;35.60;;;;;;5009449;28;20461;-80
2022/08/02 17:34:48;;;;;;;4.30;3.70;;;37.00;37.00;;;;;;5025693;28;20457;-82
2022/08/02 17:37:14;;;;;;;4.03;3.73;;;36.10;38.90;;;;;;5010753;28;20466;-82
2022/08/02 17:39:42;;;;;;;3.60;3.40;;;35.30;39.70;;;;;;5013428;28;20447;-81
2022/08/02 17:42:09;;;;;;;3.70;3.50;;;34.40;41.30;;;;;;5000807;28;20478;-80
2022/08/02 17:44:36;;;;;;;4.47;4.17;;;33.80;42.60;;;;;;4992978;28;20475;-81
2022/08/02 17:47:05;;;;;;;4.90;4.40;;;33.20;43.40;;;;;;5003259;28;20477;-80
2022/08/02 17:49:31;;;;;;;4.37;4.07;;;32.70;44.50;;;;;;5001468;28;20457;-81
2022/08/02 17:51:58;;;;;;;3.87;3.67;;;32.20;45.30;;;;;;4992178;28;20478;-81
2022/08/02 17:54:25;;;;;;;3.83;3.60;;;31.80;46.60;;;;;;5006885;28;20446;-82
2022/08/02 17:56:53;;;;;;;4.30;4.00;;;31.50;47.50;;;;;;5003965;28;20472;-82
2022/08/02 17:59:22;;;;;;;4.03;3.53;;;31.10;48.20;;;;;;5002982;28;20474;-81
2022/08/02 18:01:50;;;;;;;4.10;3.80;;;30.80;48.90;;;;;;5003936;28;20456;-81
2022/08/02 18:04:17;;;;;;;4.90;4.50;;;30.50;49.60;;;;;;4999714;28;20456;-82
2022/08/02 18:06:46;;;;;;;4.00;3.67;;;30.20;50.20;;;;;;4985464;28;21021;-85
2022/08/02 18:09:13;;;;;;;4.57;4.03;;;30.00;50.70;;;;;;4985656;28;20975;-82
2022/08/02 18:11:39;;;;;;;4.73;4.43;;;29.90;51.30;;;;;;4987034;28;20459;-81
2022/08/02 18:14:07;;;;;;;4.40;4.07;;;29.80;51.80;;;;;;4987938;28;20456;-82
2022/08/02 18:16:34;;;;;;;4.93;3.70;;;29.70;51.90;;;;;;4984491;28;20563;-82
2022/08/02 18:19:01;;;;;;;4.40;4.10;;;29.70;52.70;;;;;;5000095;28;20447;-82
2022/08/02 18:21:28;;;;;;;4.73;4.40;;;29.60;52.70;;;;;;5002492;28;20948;-83
2022/08/02 18:23:55;;;;;;;4.10;3.80;;;29.50;53.00;;;;;;4981271;28;20456;-82
2022/08/02 18:26:21;;;;;;;4.63;4.17;;;29.50;53.80;;;;;;4978012;28;20857;-83
2022/08/02 18:28:48;;;;;;;4.80;4.40;;;29.40;53.40;;;;;;4973123;28;20464;-81
2022/08/02 18:31:16;;;;;;;4.40;4.10;;;29.30;53.60;;;;;;4983567;28;20992;-80
2022/08/02 18:33:43;;;;;;;4.60;4.30;;;29.20;53.80;;;;;;4980186;28;20457;-84
2022/08/02 18:36:11;;;;;;;4.43;3.90;;;29.10;54.20;;;;;;4973686;28;20536;-83
2022/08/02 18:38:38;;;;;;;5.07;4.57;;;29.00;54.50;;;;;;4981680;28;20462;-82
2022/08/02 18:41:06;;;;;;;4.17;3.87;;;28.90;54.70;;;;;;4979277;28;20815;-83
2022/08/02 18:43:34;;;;;;;3.57;3.23;;;28.80;55.20;;;;;;4978229;28;20633;-84
2022/08/02 18:46:03;;;;;;;4.77;4.33;;;28.60;55.30;;;;;;4977551;28;20491;-82
2022/08/02 18:48:31;;;;;;;5.00;4.60;;;28.50;56.20;;;;;;4978108;28;20891;-83
2022/08/02 18:50:58;;;;;;;5.00;4.60;;;28.40;57.10;;;;;;4969727;28;20459;-83
2022/08/02 18:53:25;;;;;;;3.93;3.63;;;28.30;57.00;;;;;;4959178;28;20462;-83
2022/08/02 18:55:52;;;;;;;4.60;4.20;;;28.20;57.20;;;;;;4957985;28;20482;-82
2022/08/02 18:58:19;;;;;;;4.67;4.27;;;28.00;57.40;;;;;;4958661;28;20470;-83
2022/08/02 19:00:47;;;;;;;4.17;3.87;;;27.90;57.60;;;;;;4957946;28;20463;-84
2022/08/02 19:03:14;;;;;;;4.50;4.20;;;27.80;58.10;;;;;;4958747;28;20451;-84
2022/08/02 19:05:43;;;;;;;4.80;4.50;;;27.60;58.80;;;;;;4958402;28;20498;-83
2022/08/02 19:08:10;;;;;;;4.77;4.47;;;27.50;59.00;;;;;;4959152;28;20460;-83
2022/08/02 19:10:40;;;;;;;5.40;5.00;;;27.30;59.50;;;;;;4956869;28;20838;-83
2022/08/02 19:13:07;;;;;;;6.57;5.17;;;27.10;60.50;;;;;;4957999;28;20476;-83
2022/08/02 19:15:34;;;;;;;5.60;5.20;;;26.90;61.60;;;;;;4958323;28;20477;-83
2022/08/02 19:18:01;;;;;;;5.73;4.63;;;26.70;62.10;;;;;;4958862;28;20457;-83
2022/08/02 19:20:28;;;;;;;5.90;5.40;;;26.70;63.10;;;;;;4958680;28;20460;-85
2022/08/02 19:22:56;;;;;;;5.47;5.10;;;26.50;63.60;;;;;;4983261;28;20445;-84
2022/08/02 19:25:23;;;;;;;5.37;4.90;;;26.40;64.90;;;;;;4996617;28;20986;-84
2022/08/02 19:27:51;;;;;;;8.30;7.70;;;26.30;65.90;;;;;;4992176;28;20467;-83
2022/08/02 19:30:22;;;;;;;8.60;7.90;;;26.30;66.70;;;;;;4981137;28;20456;-81
2022/08/02 19:32:49;;;;;;;6.57;5.97;;;26.10;68.50;;;;;;4982477;28;20453;-82
2022/08/02 19:35:22;;;;;;;5.67;5.17;;;26.00;68.90;;;;;;4977281;28;20481;-82
2022/08/02 19:37:48;;;;;;;5.10;4.70;;;25.80;71.20;;;;;;4980042;28;20478;-84
2022/08/02 19:40:22;;;;;;;4.90;4.50;;;25.70;71.50;;;;;;4978450;28;20964;-81
2022/08/02 19:42:49;;;;;;;5.90;5.50;;;25.60;72.40;;;;;;4977854;28;20445;-81
2022/08/02 19:45:16;;;;;;;6.00;5.50;;;25.50;73.40;;;;;;4979085;28;20502;-83
2022/08/02 19:47:43;;;;;;;8.07;4.80;;;25.50;74.00;;;;;;4997182;28;20456;-82
2022/08/02 19:50:11;;;;;;;5.17;4.80;;;25.30;74.60;;;;;;4997785;28;20463;-81
2022/08/02 19:52:39;;;;;;;6.17;5.67;;;25.20;74.80;;;;;;4997262;28;20458;-83
2022/08/02 19:55:07;;;;;;;7.03;6.53;;;25.00;75.40;;;;;;4996630;28;20472;-81
2022/08/02 19:57:35;;;;;;;4.70;4.40;;;24.80;76.10;;;;;;4978167;28;20456;-82
2022/08/02 20:00:10;;;;;;;5.00;4.60;;;24.70;77.60;;;;;;4978062;28;20485;-81
2022/08/02 20:02:43;;;;;;;5.13;4.70;;;24.60;77.50;;;;;;4995696;28;20458;-82
2022/08/02 20:05:10;;;;;;;5.93;5.43;;;24.60;78.30;;;;;;4997106;28;20500;-82
2022/08/02 20:07:41;;;;;;;5.13;4.83;;;24.50;79.30;;;;;;4969221;28;20830;-83
2022/08/02 20:10:09;;;;;;;5.17;4.70;;;24.40;80.30;;;;;;4977088;28;20471;-82
2022/08/02 20:12:37;;;;;;;6.20;5.70;;;24.30;81.20;;;;;;4997931;28;20457;-81
2022/08/02 20:15:05;;;;;;;6.80;6.23;;;24.30;83.00;;;;;;5001258;28;20480;-82
2022/08/02 20:17:32;;;;;;;5.30;5.00;;;24.30;84.40;;;;;;4987383;28;20453;-83
2022/08/02 20:19:59;;;;;;;7.63;6.93;;;24.20;85.60;;;;;;4981048;28;20533;-84
2022/08/02 20:22:26;;;;;;;5.20;4.70;;;24.10;86.10;;;;;;4981704;28;20465;-82
2022/08/02 20:24:53;;;;;;;5.40;5.00;;;24.00;87.00;;;;;;4979549;28;20456;-82
2022/08/02 20:27:20;;;;;;;6.17;5.67;;;24.00;88.20;;;;;;4980121;28;20487;-81
2022/08/02 20:29:48;;;;;;;6.53;6.03;;;23.80;89.40;;;;;;4978852;28;20457;-84
2022/08/02 20:32:20;;;;;;;6.60;6.00;;;23.70;90.00;;;;;;5006155;28;20463;-82
2022/08/02 20:34:47;;;;;;;6.53;5.87;;;23.60;90.50;;;;;;5008781;28;20595;-83
2022/08/02 20:37:14;;;;;;;6.03;5.57;;;23.60;91.20;;;;;;5002921;28;20458;-82
2022/08/02 20:39:40;;;;;;;6.60;5.33;;;23.60;91.70;;;;;;5003537;28;20451;-83
2022/08/02 20:42:07;;;;;;;6.30;5.73;;;23.60;92.40;;;;;;4999495;28;20455;-84
2022/08/02 20:44:34;;;;;;;6.73;6.23;;;23.50;92.80;;;;;;4999666;28;20756;-83
2022/08/02 20:47:03;;;;;;;6.63;6.13;;;23.30;93.00;;;;;;4993085;28;20487;-83
2022/08/02 20:49:29;;;;;;;7.50;6.87;;;23.30;93.80;;;;;;4998172;28;20450;-80
2022/08/02 20:51:55;;;;;;;9.17;8.47;;;23.20;94.00;;;;;;4983771;28;20954;-81
2022/08/02 20:54:22;;;;;;;6.97;6.47;;;23.10;94.40;;;;;;4980148;28;20458;-81
2022/08/02 20:56:48;;;;;;;6.60;6.10;;;23.10;94.80;;;;;;4979085;28;20223;-80
2022/08/02 20:59:17;;;;;;;7.23;5.87;;;23.10;95.30;;;;;;4979246;28;20466;-85
2022/08/02 21:01:43;;;;;;;6.93;6.33;;;23.10;95.70;;;;;;4993577;28;20930;-86
2022/08/02 21:04:11;;;;;;;6.80;6.20;;;23.00;96.00;;;;;;5003672;28;20451;-83
2022/08/02 21:06:38;;;;;;;7.40;6.80;;;23.00;96.50;;;;;;5002708;28;20494;-82
2022/08/02 21:09:05;;;;;;;7.10;6.20;;;23.00;96.80;;;;;;5004573;28;20450;-82
2022/08/02 21:11:32;;;;;;;10.43;9.33;;;22.90;97.10;;;;;;4998541;28;20463;-85
2022/08/02 21:13:58;;;;;;;5.60;5.20;;;22.70;97.50;;;;;;4993279;28;20535;-85
2022/08/02 21:16:25;;;;;;;7.47;6.80;;;22.70;97.90;;;;;;5009333;28;20478;-85
2022/08/02 21:18:54;;;;;;;6.60;6.07;;;22.70;98.10;;;;;;5010582;28;20456;-85
2022/08/02 21:21:22;;;;;;;6.60;6.10;;;22.60;98.40;;;;;;5005681;28;20981;-84
2022/08/02 21:23:49;;;;;;;6.70;6.20;;;22.50;98.80;;;;;;4990010;28;20469;-81
2022/08/02 21:26:17;;;;;;;7.10;6.63;;;22.50;99.20;;;;;;4985388;28;20483;-82
2022/08/02 21:28:44;;;;;;;5.77;5.40;;;22.50;99.60;;;;;;5005448;28;20514;-82
2022/08/02 21:31:11;;;;;;;6.67;6.20;;;22.50;99.90;;;;;;4994997;28;20456;-81
2022/08/02 21:33:37;;;;;;;6.60;6.10;;;22.40;99.90;;;;;;4980582;28;20468;-83
2022/08/02 21:36:05;;;;;;;6.70;6.10;;;22.40;99.90;;;;;;4982577;28;20571;-81
2022/08/02 21:38:33;;;;;;;5.80;5.40;;;22.30;99.90;;;;;;4977094;28;20475;-81
2022/08/02 21:40:59;;;;;;;6.00;5.50;;;22.10;99.90;;;;;;4985521;28;20838;-82
2022/08/02 21:43:26;;;;;;;10.00;5.90;;;22.10;99.90;;;;;;4980026;28;20462;-82
2022/08/02 21:45:53;;;;;;;6.07;5.57;;;22.00;99.90;;;;;;4981027;28;20495;-83
2022/08/02 21:48:20;;;;;;;5.80;5.40;;;21.90;99.90;;;;;;4974798;28;20449;-82
2022/08/02 21:50:46;;;;;;;6.40;5.90;;;22.00;99.90;;;;;;4980243;28;20450;-81